Terminal Aerodrome Forecast
Issued by NWS Quad Cities IA IL

Home | Current Version | Previous Version | Text Only | Print | Product List | Glossary On
Versions: 1 2 3 4 5 6 7 8 9 10 11 12 13 14 15 16 17 18 19 20
000
FTUS43 KDVN 040520
TAFMLI
TAF
KMLI 040520Z 0406/0506 VRB03KT P6SM SKC
     FM040800 00000KT 5SM BR SKC
      TEMPO 0408/0412 2SM BR
     FM041400 VRB03KT P6SM SKC=

USA.gov is the U.S. government's official web portal to all federal, state and local government web resources and services.